Time;durP1;ratioP1;P1;durP2;ratioP2;P2;SDS_P1;SDS_P2;PMS_P1;PMS_P2;Temp;Humidity;BMP_temperature;BMP_pressure;BME280_temperature;BME280_humidity;BME280_pressure;Samples;Min_cycle;Max_cycle;Signal;HPM_P1;HPM_P2
2023/01/23 00:01:25;;;;;;;51.78;21.15;;;-3.30;99.90;;;;;;5015291;28;20053;-76
2023/01/23 00:03:54;;;;;;;55.88;22.13;;;-3.40;99.90;;;;;;4982068;28;20049;-76
2023/01/23 00:06:22;;;;;;;53.78;23.33;;;-3.40;99.90;;;;;;4997536;28;20046;-77
2023/01/23 00:08:50;;;;;;;58.80;23.98;;;-3.40;99.90;;;;;;5015683;28;20050;-78
2023/01/23 00:11:23;;;;;;;64.03;24.65;;;-3.40;99.90;;;;;;4997241;28;20038;-79
2023/01/23 00:13:51;;;;;;;55.33;23.67;;;-3.40;99.90;;;;;;4998353;28;20492;-76
2023/01/23 00:16:21;;;;;;;57.38;23.50;;;-3.40;99.90;;;;;;4998207;28;20057;-76
2023/01/23 00:18:50;;;;;;;52.13;21.73;;;-3.40;99.90;;;;;;4997285;28;20053;-77
2023/01/23 00:21:20;;;;;;;55.78;21.95;;;-3.40;99.90;;;;;;4982367;28;20038;-77
2023/01/23 00:23:51;;;;;;;53.50;21.58;;;-3.40;99.90;;;;;;4982247;28;20049;-77
2023/01/23 00:26:23;;;;;;;53.60;22.00;;;-3.50;99.90;;;;;;5014281;28;20049;-78
2023/01/23 00:28:51;;;;;;;51.90;21.35;;;-3.50;99.90;;;;;;5015360;28;20041;-75
2023/01/23 00:31:23;;;;;;;53.70;22.83;;;-3.60;99.90;;;;;;5014410;28;20061;-78
2023/01/23 00:33:57;;;;;;;62.78;23.67;;;-3.60;99.90;;;;;;4982297;28;20061;-79
2023/01/23 00:36:29;;;;;;;54.60;23.15;;;-3.70;99.90;;;;;;4998090;28;20044;-78
2023/01/23 00:38:57;;;;;;;54.30;22.90;;;-2.60;99.90;;;;;;4980892;28;20038;-76
2023/01/23 00:41:24;;;;;;;51.17;22.33;;;-3.70;99.90;;;;;;5014865;28;20042;-76
2023/01/23 00:43:53;;;;;;;48.95;19.63;;;-3.70;99.90;;;;;;5014859;28;20373;-78
2023/01/23 00:46:21;;;;;;;51.70;21.90;;;-3.70;99.90;;;;;;4996649;28;20046;-81
2023/01/23 00:48:49;;;;;;;44.90;20.08;;;-3.70;99.90;;;;;;4998120;28;20056;-79
2023/01/23 00:51:18;;;;;;;45.25;19.77;;;-3.70;99.90;;;;;;5014033;28;20073;-78
2023/01/23 00:53:46;;;;;;;43.47;19.73;;;-3.80;99.90;;;;;;4997586;28;20064;-79
2023/01/23 00:56:13;;;;;;;;;;;-3.80;99.90;;;;;;4982013;28;20046;-80
2023/01/23 00:58:41;;;;;;;47.55;17.70;;;-4.60;99.90;;;;;;4997085;28;19922;-80
2023/01/23 01:01:13;;;;;;;44.78;18.02;;;-3.80;99.90;;;;;;5000581;28;20068;-76
2023/01/23 01:03:41;;;;;;;43.95;17.17;;;-3.80;99.90;;;;;;5033793;28;20049;-77
2023/01/23 01:06:11;;;;;;;42.08;18.15;;;-3.80;99.90;;;;;;5032746;28;20061;-79
2023/01/23 01:08:39;;;;;;;41.15;18.80;;;-3.80;99.90;;;;;;5000871;28;20053;-76
2023/01/23 01:11:07;;;;;;;38.85;16.55;;;-3.80;99.90;;;;;;5016517;28;20049;-77
2023/01/23 01:13:35;;;;;;;39.35;16.73;;;-3.90;99.90;;;;;;5017099;28;20049;-79
2023/01/23 01:16:03;;;;;;;39.22;17.27;;;-3.80;99.90;;;;;;5033644;28;20050;-77
2023/01/23 01:18:31;;;;;;;40.67;16.58;;;-3.90;99.90;;;;;;5036629;28;20041;-75
2023/01/23 01:20:59;;;;;;;36.25;17.23;;;-3.90;99.90;;;;;;5037349;28;20057;-79
2023/01/23 01:23:26;;;;;;;;;;;-3.90;99.90;;;;;;5037772;28;20052;-78
2023/01/23 01:25:58;;;;;;;34.95;14.52;;;-4.00;99.90;;;;;;5036356;28;19928;-79
2023/01/23 01:28:29;;;;;;;36.85;15.05;;;-3.90;99.90;;;;;;5037715;28;20472;-77
2023/01/23 01:30:57;;;;;;;40.53;15.90;;;-3.90;99.90;;;;;;5037214;28;20050;-79
2023/01/23 01:33:27;;;;;;;29.48;14.25;;;-4.00;99.90;;;;;;5021371;28;20380;-80
2023/01/23 01:35:55;;;;;;;35.08;15.15;;;-4.00;99.90;;;;;;5037182;28;20045;-78
2023/01/23 01:38:23;;;;;;;31.55;15.27;;;-2.60;99.90;;;;;;5020207;28;20364;-78
2023/01/23 01:40:51;;;;;;;36.95;16.23;;;-4.00;99.90;;;;;;5037240;28;20361;-78
2023/01/23 01:43:24;;;;;;;31.20;14.75;;;-4.00;99.90;;;;;;5037913;28;20041;-79
2023/01/23 01:46:20;;;;;;;37.22;14.60;;;-4.00;99.90;;;;;;5019509;28;20064;-77
2023/01/23 01:48:50;;;;;;;33.30;13.95;;;-4.00;99.90;;;;;;5020583;28;20471;-78
2023/01/23 01:51:28;;;;;;;34.25;14.43;;;-4.00;99.90;;;;;;5003680;28;20049;-80
2023/01/23 01:54:01;;;;;;;37.25;15.02;;;-4.00;99.90;;;;;;5037757;28;20045;-77
2023/01/23 01:56:34;;;;;;;32.88;14.48;;;-4.00;99.90;;;;;;5020725;28;20045;-76
2023/01/23 01:59:03;;;;;;;31.17;15.07;;;-4.00;99.90;;;;;;5019425;28;20072;-78
2023/01/23 02:01:31;;;;;;;38.80;14.68;;;-4.10;99.90;;;;;;5020286;28;20068;-79
2023/01/23 02:04:03;;;;;;;31.80;14.48;;;-4.00;99.90;;;;;;5004935;28;20060;-78
2023/01/23 02:06:31;;;;;;;32.67;14.15;;;-4.00;99.90;;;;;;5019417;28;20492;-79
2023/01/23 02:09:16;;;;;;;40.10;14.45;;;-4.10;99.90;;;;;;5036641;28;20053;-76
2023/01/23 02:11:46;;;;;;;34.80;14.23;;;-4.10;99.90;;;;;;5035461;28;20050;-80
2023/01/23 02:14:13;;;;;;;39.10;15.65;;;-4.10;99.90;;;;;;5036667;28;20045;-77
2023/01/23 02:16:49;;;;;;;38.58;14.98;;;-4.20;99.90;;;;;;5037442;28;20042;-78
2023/01/23 02:19:54;;;;;;;35.88;14.75;;;-4.20;99.90;;;;;;5018999;28;20052;-77
2023/01/23 02:22:34;;;;;;;34.90;14.32;;;-4.20;99.90;;;;;;5036610;28;20048;-78
2023/01/23 02:25:25;;;;;;;29.35;13.93;;;-4.20;99.90;;;;;;5018295;28;20057;-78
2023/01/23 02:27:53;;;;;;;32.30;13.52;;;-4.20;99.90;;;;;;5035935;28;20053;-77
2023/01/23 02:30:22;;;;;;;33.95;14.73;;;-4.20;99.90;;;;;;5036725;28;20056;-76
2023/01/23 02:32:52;;;;;;;37.15;14.20;;;-3.90;99.90;;;;;;5018726;28;20049;-77
2023/01/23 02:35:28;;;;;;;42.08;16.20;;;-4.20;99.90;;;;;;5036020;28;20491;-79
2023/01/23 02:38:03;;;;;;;37.17;14.20;;;-4.30;99.90;;;;;;5036043;28;20468;-79
2023/01/23 02:40:37;;;;;;;35.65;13.35;;;-4.20;99.90;;;;;;5019547;28;20372;-76
2023/01/23 02:43:11;;;;;;;32.42;13.95;;;-4.20;99.90;;;;;;5035994;28;20376;-79
2023/01/23 02:45:44;;;;;;;32.30;12.98;;;-3.60;99.90;;;;;;5019162;28;20056;-75
2023/01/23 02:48:13;;;;;;;27.92;12.05;;;-4.20;99.90;;;;;;5036035;28;20056;-77
2023/01/23 02:50:43;;;;;;;;;;;-4.20;99.90;;;;;;5036390;28;20456;-77
2023/01/23 02:53:11;;;;;;;33.72;12.55;;;-3.30;99.90;;;;;;5034721;28;19921;-77
2023/01/23 02:55:42;;;;;;;29.92;12.80;;;-3.50;99.90;;;;;;5019299;28;20045;-77
2023/01/23 03:00:56;;;;;;;32.50;12.48;;;-4.30;99.90;;;;;;5019037;28;20072;-76
2023/01/23 03:03:24;;;;;;;32.47;12.77;;;-4.30;99.90;;;;;;5036385;28;20475;-76
2023/01/23 03:05:54;;;;;;;;;;;-4.30;99.90;;;;;;5035121;28;20061;-80
2023/01/23 03:08:21;;;;;;;27.08;12.95;;;-3.50;99.90;;;;;;5019345;28;19921;-78
2023/01/23 03:10:50;;;;;;;32.72;14.23;;;-4.30;99.90;;;;;;5034434;28;20060;-79
2023/01/23 03:13:17;;;;;;;33.40;13.05;;;-4.30;99.90;;;;;;5035489;28;20064;-77
2023/01/23 03:15:48;;;;;;;30.33;12.82;;;-4.30;99.90;;;;;;5035119;28;20049;-76
2023/01/23 03:18:16;;;;;;;35.88;13.57;;;-4.30;99.90;;;;;;5018272;28;20050;-79
2023/01/23 03:20:44;;;;;;;32.50;13.20;;;-4.30;99.90;;;;;;5018722;28;20060;-77
2023/01/23 03:23:13;;;;;;;33.45;13.77;;;-3.10;99.90;;;;;;5036009;28;20376;-78
2023/01/23 03:25:45;;;;;;;33.20;13.20;;;-4.30;99.90;;;;;;5017418;28;20049;-77
2023/01/23 03:30:59;;;;;;;34.53;13.60;;;-4.30;99.90;;;;;;5034013;28;20052;-78
2023/01/23 03:33:27;;;;;;;31.95;13.57;;;-4.20;99.90;;;;;;5035410;28;20064;-78
2023/01/23 03:35:54;;;;;;;30.63;12.45;;;-4.00;99.90;;;;;;5035210;28;20369;-78
2023/01/23 03:38:22;;;;;;;34.28;14.10;;;-4.20;99.90;;;;;;5001336;28;20041;-76
2023/01/23 03:43:36;;;;;;;38.15;14.60;;;-4.10;99.90;;;;;;5018903;28;20056;-78
2023/01/23 03:46:05;;;;;;;37.03;15.00;;;-4.10;99.90;;;;;;5017134;28;20053;-76
2023/01/23 03:48:34;;;;;;;37.15;14.23;;;-4.10;99.90;;;;;;5018401;28;20384;-77
2023/01/23 03:51:03;;;;;;;38.47;14.52;;;-4.00;99.90;;;;;;5016974;28;20416;-78
2023/01/23 03:53:32;;;;;;;31.88;14.98;;;-3.90;99.90;;;;;;5002679;28;20060;-76
2023/01/23 03:56:01;;;;;;;30.20;13.88;;;-3.90;99.90;;;;;;5034575;28;20120;-76
2023/01/23 03:58:29;;;;;;;30.77;14.13;;;-3.80;99.90;;;;;;5033716;28;20467;-79
2023/01/23 04:00:57;;;;;;;31.30;13.52;;;-3.90;99.90;;;;;;5018021;28;20056;-78
2023/01/23 04:03:26;;;;;;;31.33;12.77;;;-3.90;99.90;;;;;;5018234;28;20481;-77
2023/01/23 04:05:56;;;;;;;32.22;12.80;;;-3.90;99.90;;;;;;5033425;28;20489;-76
2023/01/23 04:08:24;;;;;;;29.30;12.98;;;-3.90;99.90;;;;;;5034752;28;20050;-77
2023/01/23 04:11:08;;;;;;;31.35;14.20;;;-3.90;99.90;;;;;;5017321;28;20053;-80
2023/01/23 04:13:36;;;;;;;33.05;14.10;;;-2.20;99.90;;;;;;5034615;28;20044;-78
2023/01/23 04:16:04;;;;;;;32.17;13.50;;;-3.90;99.90;;;;;;5035194;28;20365;-79
2023/01/23 04:18:32;;;;;;;27.98;13.25;;;-3.90;99.90;;;;;;5033578;28;20053;-79
2023/01/23 04:21:00;;;;;;;;;;;-4.00;99.90;;;;;;5034759;28;20456;-79
2023/01/23 04:23:29;;;;;;;30.17;13.27;;;-4.00;99.90;;;;;;5034444;28;19921;-78
2023/01/23 04:25:57;;;;;;;33.90;13.20;;;-4.00;99.90;;;;;;5016760;28;20125;-78
2023/01/23 04:28:24;;;;;;;30.65;12.98;;;-4.00;99.90;;;;;;5017833;28;20049;-78
2023/01/23 04:30:53;;;;;;;31.95;13.20;;;-3.90;99.90;;;;;;5033452;28;20055;-76
2023/01/23 04:33:27;;;;;;;38.92;13.63;;;-3.90;99.90;;;;;;5018032;28;20049;-78
2023/01/23 04:36:00;;;;;;;35.75;14.57;;;-3.90;99.90;;;;;;5001243;28;20357;-80
2023/01/23 04:38:30;;;;;;;33.63;15.23;;;-3.80;99.90;;;;;;5017014;28;20045;-77
2023/01/23 04:41:16;;;;;;;35.95;15.32;;;-3.70;99.90;;;;;;5017626;28;20111;-79
2023/01/23 04:43:47;;;;;;;32.78;14.82;;;-3.70;99.90;;;;;;5018073;28;20060;-77
2023/01/23 04:46:15;;;;;;;33.10;14.90;;;-3.60;99.90;;;;;;5032829;28;20064;-78
2023/01/23 04:49:05;;;;;;;31.95;14.30;;;-3.50;99.90;;;;;;5033682;28;20384;-78
2023/01/23 04:51:35;;;;;;;33.47;15.68;;;-3.40;99.90;;;;;;5016552;28;20064;-80
2023/01/23 04:54:03;;;;;;;33.63;15.07;;;-3.40;99.90;;;;;;5033718;28;20045;-78
2023/01/23 04:56:32;;;;;;;37.33;15.40;;;-3.30;99.90;;;;;;5034047;28;20042;-76
2023/01/23 04:59:02;;;;;;;34.88;15.75;;;-3.30;99.90;;;;;;5032716;28;20042;-76
2023/01/23 05:01:30;;;;;;;34.80;15.13;;;-3.30;99.90;;;;;;5033588;28;20491;-79
2023/01/23 05:04:01;;;;;;;34.60;15.82;;;-3.30;99.90;;;;;;5001425;28;20045;-76
2023/01/23 05:06:29;;;;;;;37.25;16.52;;;-3.30;99.90;;;;;;5032541;28;20072;-80
2023/01/23 05:08:58;;;;;;;36.45;16.50;;;-3.30;99.90;;;;;;5033790;28;20053;-78
2023/01/23 05:11:33;;;;;;;35.78;15.35;;;-3.30;99.90;;;;;;5032558;28;20050;-78
2023/01/23 05:14:01;;;;;;;;;;;-3.30;99.90;;;;;;5017726;28;20491;-76
2023/01/23 05:16:30;;;;;;;37.17;14.85;;;-2.40;99.90;;;;;;5017549;28;20260;-78
2023/01/23 05:19:16;;;;;;;37.85;15.27;;;-3.30;99.90;;;;;;5018726;28;20060;-76
2023/01/23 05:21:44;;;;;;;36.70;15.82;;;-3.40;99.90;;;;;;5017072;28;20049;-79
2023/01/23 05:24:16;;;;;;;41.45;16.23;;;-3.40;99.90;;;;;;5032620;28;20049;-76
2023/01/23 05:26:44;;;;;;;31.20;15.18;;;-3.50;99.90;;;;;;5033493;28;20384;-77
2023/01/23 05:29:13;;;;;;;35.33;15.90;;;-3.50;99.90;;;;;;5016942;28;20049;-77
2023/01/23 05:31:50;;;;;;;31.30;15.38;;;-3.50;99.90;;;;;;5017658;28;20068;-81
2023/01/23 05:34:46;;;;;;;32.70;14.23;;;-3.60;99.90;;;;;;5025914;28;20068;-79
2023/01/23 05:37:24;;;;;;;34.78;15.55;;;-3.60;99.90;;;;;;5033213;28;20045;-80
2023/01/23 05:39:55;;;;;;;33.65;15.48;;;-3.70;99.90;;;;;;5033738;28;20048;-79
2023/01/23 05:42:23;;;;;;;34.95;15.70;;;-3.70;99.90;;;;;;5016816;28;20056;-79
2023/01/23 05:45:11;;;;;;;;;;;-3.80;99.90;;;;;;5023058;28;20053;-78
2023/01/23 05:47:41;;;;;;;33.88;14.50;;;-3.80;99.90;;;;;;5016609;28;19921;-76
2023/01/23 05:50:15;;;;;;;33.75;15.73;;;-3.80;99.90;;;;;;5034077;28;20056;-75
2023/01/23 05:52:44;;;;;;;34.13;15.38;;;-3.80;99.90;;;;;;5015980;28;20045;-77
2023/01/23 05:55:12;;;;;;;38.22;16.77;;;-3.90;99.90;;;;;;5033595;28;20413;-79
2023/01/23 05:57:40;;;;;;;34.72;15.88;;;-3.90;99.90;;;;;;5031991;28;20476;-81
2023/01/23 06:00:27;;;;;;;39.97;17.08;;;-3.90;99.90;;;;;;5033066;28;20373;-78
2023/01/23 06:03:14;;;;;;;41.67;17.50;;;-3.90;99.90;;;;;;5014377;28;20049;-79
2023/01/23 06:05:50;;;;;;;43.45;18.30;;;-3.90;99.90;;;;;;5019415;28;20053;-79
2023/01/23 06:08:19;;;;;;;44.85;18.33;;;-3.80;99.90;;;;;;5020274;28;20053;-79
2023/01/23 06:10:46;;;;;;;35.00;17.10;;;-3.80;99.90;;;;;;5036649;28;20053;-79
2023/01/23 06:13:15;;;;;;;38.15;17.15;;;-3.70;99.90;;;;;;5036611;28;20041;-79
2023/01/23 06:15:43;;;;;;;38.85;17.92;;;-3.70;99.90;;;;;;5036703;28;20056;-79
2023/01/23 06:18:11;;;;;;;39.17;17.33;;;-3.70;99.90;;;;;;5035810;28;20041;-79
2023/01/23 06:20:40;;;;;;;37.05;17.15;;;-3.60;99.90;;;;;;5036435;28;20096;-76
2023/01/23 06:23:08;;;;;;;41.47;17.98;;;-3.70;99.90;;;;;;5019963;28;20053;-80
2023/01/23 06:25:37;;;;;;;35.58;16.90;;;-3.70;99.90;;;;;;5018672;28;20503;-78
2023/01/23 06:28:07;;;;;;;38.95;17.73;;;-3.70;99.90;;;;;;5020713;28;20056;-77
2023/01/23 06:30:36;;;;;;;44.72;19.02;;;-3.70;99.90;;;;;;5019690;28;20100;-79
2023/01/23 06:33:09;;;;;;;38.95;17.75;;;-3.80;99.90;;;;;;5019828;28;20046;-79
2023/01/23 06:35:40;;;;;;;41.20;17.88;;;-3.70;99.90;;;;;;5036212;28;20046;-81
2023/01/23 06:38:08;;;;;;;40.20;18.40;;;-3.70;99.90;;;;;;5019165;28;20052;-78
2023/01/23 06:40:36;;;;;;;47.58;18.65;;;-3.70;99.90;;;;;;5036325;28;20046;-79
2023/01/23 06:43:22;;;;;;;40.45;17.50;;;-3.80;99.90;;;;;;5036419;28;20357;-78
2023/01/23 06:45:50;;;;;;;42.13;17.77;;;-3.70;99.90;;;;;;5018435;28;20053;-79
2023/01/23 06:48:19;;;;;;;40.53;17.90;;;-3.70;99.90;;;;;;5035850;28;20051;-79
2023/01/23 06:50:47;;;;;;;40.47;18.33;;;-3.70;99.90;;;;;;5019221;28;20050;-78
2023/01/23 06:53:16;;;;;;;43.45;18.50;;;-3.70;99.90;;;;;;5035924;28;20060;-79
2023/01/23 06:55:45;;;;;;;42.85;19.10;;;-3.70;99.90;;;;;;5036145;28;20052;-81
2023/01/23 06:58:14;;;;;;;44.97;19.17;;;-3.70;99.90;;;;;;5018401;28;20049;-79
2023/01/23 07:00:43;;;;;;;40.20;18.45;;;-3.70;99.90;;;;;;5019056;28;20053;-80
2023/01/23 07:03:20;;;;;;;;;;;-3.70;99.90;;;;;;5020071;28;20061;-80
2023/01/23 07:05:47;;;;;;;42.60;17.77;;;-3.80;99.90;;;;;;5034552;28;20347;-79
2023/01/23 07:08:15;;;;;;;38.97;17.25;;;-1.60;99.90;;;;;;5035738;28;20049;-78
2023/01/23 07:10:42;;;;;;;;;;;-3.00;99.90;;;;;;5019315;28;20060;-78
2023/01/23 07:13:11;;;;;;;37.15;16.92;;;-1.60;99.90;;;;;;5017952;28;19921;-80
2023/01/23 07:15:39;;;;;;;40.22;18.02;;;-4.10;99.90;;;;;;5018426;28;20449;-77
2023/01/23 07:18:08;;;;;;;42.15;19.52;;;-4.30;99.90;;;;;;5034409;28;20041;-81
2023/01/23 07:20:37;;;;;;;45.35;19.40;;;-4.00;99.90;;;;;;5018920;28;20491;-78
2023/01/23 07:23:04;;;;;;;47.38;19.58;;;-4.10;99.90;;;;;;5035300;28;20041;-77
2023/01/23 07:25:32;;;;;;;45.13;19.45;;;-4.10;99.90;;;;;;5034062;28;20046;-80
2023/01/23 07:27:59;;;;;;;44.05;19.83;;;-4.20;99.90;;;;;;5035809;28;20494;-77
2023/01/23 07:30:28;;;;;;;46.72;19.33;;;-4.20;99.90;;;;;;5018766;28;20050;-77
2023/01/23 07:32:58;;;;;;;43.55;19.80;;;-4.20;99.90;;;;;;5034086;28;20053;-79
2023/01/23 07:35:28;;;;;;;45.80;18.70;;;-4.20;99.90;;;;;;5019333;28;20056;-77
2023/01/23 07:37:56;;;;;;;43.63;19.25;;;-2.20;99.90;;;;;;5017744;28;20042;-78
2023/01/23 07:40:23;;;;;;;45.78;18.85;;;-4.20;99.90;;;;;;5034815;28;20052;-78
2023/01/23 07:42:55;;;;;;;48.60;20.65;;;-4.30;99.90;;;;;;5035456;28;20053;-77
2023/01/23 07:45:23;;;;;;;42.92;19.85;;;-4.30;99.90;;;;;;5034854;28;20037;-79
2023/01/23 07:47:50;;;;;;;46.05;19.67;;;-4.30;99.90;;;;;;5035626;28;20049;-79
2023/01/23 07:50:18;;;;;;;45.53;19.40;;;-4.30;99.90;;;;;;5018572;28;20045;-80
2023/01/23 07:52:46;;;;;;;42.65;18.90;;;-4.30;99.90;;;;;;5034039;28;20060;-78
2023/01/23 07:55:13;;;;;;;39.45;18.80;;;-4.30;99.90;;;;;;5035479;28;20338;-78
2023/01/23 07:57:42;;;;;;;43.72;19.60;;;-4.30;99.90;;;;;;5033959;28;20071;-78
2023/01/23 08:00:10;;;;;;;49.95;20.48;;;-4.30;99.90;;;;;;5032701;28;20057;-79
2023/01/23 08:02:46;;;;;;;42.97;20.10;;;-4.30;99.90;;;;;;4998851;28;20038;-77
2023/01/23 08:05:13;;;;;;;49.00;19.80;;;-2.30;99.90;;;;;;4997143;28;20046;-80
2023/01/23 08:07:41;;;;;;;52.38;22.00;;;-4.40;99.90;;;;;;4998966;28;20050;-76
2023/01/23 08:10:13;;;;;;;56.15;22.30;;;-4.60;99.90;;;;;;4982539;28;20068;-77
2023/01/23 08:12:40;;;;;;;50.47;21.27;;;-4.90;99.90;;;;;;4981237;28;20116;-76
2023/01/23 08:15:08;;;;;;;53.65;23.30;;;-4.40;99.90;;;;;;4998910;28;20050;-80
2023/01/23 08:17:36;;;;;;;52.40;22.27;;;-4.30;99.90;;;;;;5014242;28;20053;-80
2023/01/23 08:20:04;;;;;;;48.15;20.85;;;-4.30;99.90;;;;;;5015603;28;20053;-76
2023/01/23 08:22:32;;;;;;;;;;;-4.20;99.90;;;;;;4998650;28;20057;-79
2023/01/23 08:24:59;;;;;;;49.33;19.65;;;-4.20;99.90;;;;;;5014039;28;19928;-79
2023/01/23 08:27:27;;;;;;;52.03;21.05;;;-4.20;99.90;;;;;;4982242;28;20050;-80
2023/01/23 08:29:54;;;;;;;45.70;20.52;;;-4.20;99.90;;;;;;5015381;28;20050;-77
2023/01/23 08:32:22;;;;;;;48.83;20.73;;;-4.20;99.90;;;;;;4996833;28;20042;-77
2023/01/23 08:34:50;;;;;;;51.50;21.63;;;-4.20;99.90;;;;;;4997902;28;20053;-80
2023/01/23 08:37:17;;;;;;;53.63;22.85;;;-3.50;99.90;;;;;;5015112;28;20049;-79
2023/01/23 08:39:45;;;;;;;47.88;21.23;;;-4.20;99.90;;;;;;4964747;28;20402;-78
2023/01/23 08:42:12;;;;;;;48.13;22.48;;;-4.20;99.90;;;;;;4998226;28;20342;-77
2023/01/23 08:44:40;;;;;;;49.88;21.60;;;-4.10;99.90;;;;;;4996648;28;20050;-80
2023/01/23 08:47:10;;;;;;;53.65;21.65;;;-4.10;99.90;;;;;;4982243;28;20065;-77
2023/01/23 08:49:37;;;;;;;45.83;21.33;;;-4.10;99.90;;;;;;4997669;28;20056;-77
2023/01/23 08:52:05;;;;;;;69.45;24.50;;;-4.00;99.90;;;;;;4996960;28;20064;-77
2023/01/23 08:54:33;;;;;;;47.60;22.75;;;-4.10;99.90;;;;;;4997894;28;20057;-78
2023/01/23 08:58:01;;;;;;;;;;;;;;;;;;;;;
2023/01/23 09:02:14;;;;;;;54.10;23.10;;;-3.70;99.90;;;;;;4992595;28;20042;-77
2023/01/23 09:05:45;;;;;;;47.67;21.05;;;-2.20;99.90;;;;;;4915961;29;20154;-77
2023/01/23 09:08:17;;;;;;;50.78;21.88;;;-2.30;99.90;;;;;;4958705;28;20058;-79
2023/01/23 09:10:44;;;;;;;57.47;24.48;;;-3.90;99.90;;;;;;4993429;28;20050;-78
2023/01/23 09:13:12;;;;;;;54.60;21.52;;;-3.90;99.90;;;;;;4975867;28;20385;-77
2023/01/23 09:15:39;;;;;;;53.67;23.05;;;-3.70;99.90;;;;;;4977082;28;20051;-76
2023/01/23 09:18:07;;;;;;;54.38;24.33;;;-3.70;99.90;;;;;;4975864;28;20050;-79
2023/01/23 09:20:36;;;;;;;61.10;23.70;;;-3.60;99.90;;;;;;4993443;28;20061;-77
2023/01/23 09:23:03;;;;;;;57.60;23.83;;;-3.60;99.90;;;;;;4993228;28;20046;-77
2023/01/23 09:25:31;;;;;;;55.03;24.35;;;-3.50;99.90;;;;;;4992089;28;20051;-78
2023/01/23 09:27:58;;;;;;;59.28;24.13;;;-3.40;99.90;;;;;;4977488;28;20053;-77
2023/01/23 09:30:26;;;;;;;57.78;24.38;;;-3.30;99.90;;;;;;4977122;28;20083;-78
2023/01/23 09:32:54;;;;;;;60.78;23.38;;;-3.30;99.90;;;;;;4992117;28;20401;-77
2023/01/23 09:35:22;;;;;;;54.75;24.00;;;-3.20;99.90;;;;;;4992862;28;20056;-76
2023/01/23 09:37:59;;;;;;;59.08;23.92;;;-3.10;99.90;;;;;;5034528;28;20050;-80
2023/01/23 09:40:28;;;;;;;47.42;18.90;;;-2.90;99.90;;;;;;5037329;28;20061;-76
2023/01/23 09:43:01;;;;;;;48.20;22.70;;;-3.00;99.90;;;;;;5037987;28;20049;-78
2023/01/23 09:45:30;;;;;;;52.95;23.50;;;-3.00;99.90;;;;;;5036090;28;20049;-79
2023/01/23 09:48:19;;;;;;;55.65;24.33;;;-2.90;99.90;;;;;;5037388;28;20056;-78
2023/01/23 09:51:16;;;;;;;61.78;24.45;;;-2.90;99.90;;;;;;5037303;28;20045;-79
2023/01/23 09:53:43;;;;;;;56.60;24.88;;;-2.80;99.90;;;;;;5035408;28;20053;-79
2023/01/23 09:56:34;;;;;;;54.10;25.40;;;-2.80;99.90;;;;;;5037761;28;20049;-77
2023/01/23 09:59:13;;;;;;;59.42;26.00;;;-2.70;99.90;;;;;;5035930;28;20060;-76
2023/01/23 10:01:52;;;;;;;63.90;29.45;;;-2.60;99.90;;;;;;5036673;28;20365;-76
2023/01/23 10:04:38;;;;;;;82.40;35.33;;;-2.50;99.90;;;;;;5022777;28;20053;-80
2023/01/23 10:07:46;;;;;;;;;;;;;;;;;;;;;
2023/01/23 10:15:14;;;;;;;119.63;50.03;;;-2.00;99.90;;;;;;4997374;28;20045;-76
2023/01/23 10:17:58;;;;;;;117.07;49.75;;;-1.80;99.90;;;;;;5036433;28;20048;-78
2023/01/23 10:20:49;;;;;;;139.30;59.28;;;-1.70;99.90;;;;;;5036538;28;20460;-79
2023/01/23 10:23:29;;;;;;;135.48;57.63;;;-1.60;99.90;;;;;;5036729;28;20052;-79
2023/01/23 10:25:58;;;;;;;140.60;62.70;;;0.70;99.90;;;;;;5035516;28;20373;-77
2023/01/23 10:28:36;;;;;;;132.95;59.50;;;-1.20;99.90;;;;;;5036529;28;20361;-77
2023/01/23 10:31:23;;;;;;;129.13;60.75;;;-1.00;99.90;;;;;;5035339;28;20049;-76
2023/01/23 10:34:02;;;;;;;130.90;61.60;;;-0.80;99.90;;;;;;5020233;28;20128;-78
2023/01/23 10:36:38;;;;;;;117.28;57.50;;;-0.70;99.90;;;;;;5036543;28;20050;-77
2023/01/23 10:39:42;;;;;;;117.05;58.08;;;0.50;99.90;;;;;;5034927;28;20042;-79
2023/01/23 10:42:12;;;;;;;118.70;58.15;;;-0.40;99.90;;;;;;5037528;28;20049;-77
2023/01/23 10:44:39;;;;;;;110.38;56.53;;;1.60;99.90;;;;;;5018853;28;20041;-78
2023/01/23 10:47:45;;;;;;;113.95;55.90;;;-0.10;99.90;;;;;;5036941;28;20368;-77
2023/01/23 10:50:47;;;;;;;100.50;52.75;;;0.00;99.90;;;;;;5037001;28;20056;-76
2023/01/23 10:53:19;;;;;;;103.97;51.28;;;0.10;99.90;;;;;;5032674;28;20045;-77
2023/01/23 10:55:49;;;;;;;103.30;51.97;;;0.10;99.90;;;;;;5036688;28;20046;-76
2023/01/23 10:58:36;;;;;;;97.82;49.60;;;0.20;99.90;;;;;;5035585;28;20049;-78
2023/01/23 11:01:06;;;;;;;90.90;47.17;;;0.30;99.90;;;;;;5035633;28;20050;-78
2023/01/23 11:03:36;;;;;;;88.38;46.90;;;0.30;99.90;;;;;;5035847;28;20291;-78
2023/01/23 11:06:07;;;;;;;88.75;46.88;;;0.30;99.90;;;;;;5035371;28;20056;-77
2023/01/23 11:08:38;;;;;;;83.45;45.50;;;0.40;99.90;;;;;;5035769;28;20049;-76
2023/01/23 11:11:14;;;;;;;86.63;45.78;;;0.40;99.90;;;;;;5035928;28;20365;-79
2023/01/23 11:13:44;;;;;;;90.35;45.20;;;0.50;99.90;;;;;;5035938;28;20503;-76
2023/01/23 11:16:22;;;;;;;88.07;43.58;;;0.60;99.90;;;;;;5035747;28;20373;-76
2023/01/23 11:19:10;;;;;;;79.20;41.15;;;0.60;99.90;;;;;;5034195;28;20053;-78
2023/01/23 11:21:54;;;;;;;80.57;42.38;;;0.70;99.90;;;;;;5036369;28;20045;-78
2023/01/23 11:24:24;;;;;;;78.13;40.65;;;0.70;99.90;;;;;;5018030;28;20033;-79
2023/01/23 11:27:25;;;;;;;83.53;42.38;;;0.70;99.90;;;;;;5035172;28;20042;-78
2023/01/23 11:30:08;;;;;;;85.68;43.80;;;0.80;99.90;;;;;;5019345;28;20075;-78
2023/01/23 11:32:55;;;;;;;79.97;42.67;;;2.10;99.90;;;;;;5034335;28;20037;-76
2023/01/23 11:35:37;;;;;;;79.95;41.58;;;0.80;99.90;;;;;;5035398;28;20045;-77
2023/01/23 11:38:04;;;;;;;79.28;42.70;;;1.60;99.90;;;;;;5034549;28;20045;-75
2023/01/23 11:40:32;;;;;;;78.55;43.33;;;1.00;99.90;;;;;;5034994;28;20056;-79
2023/01/23 11:42:59;;;;;;;81.88;42.97;;;1.10;99.90;;;;;;5036248;28;20041;-77
2023/01/23 11:45:46;;;;;;;77.30;42.50;;;1.10;99.90;;;;;;5034568;28;20060;-79
2023/01/23 11:48:31;;;;;;;79.47;40.65;;;1.20;99.90;;;;;;5034820;28;20056;-79
2023/01/23 11:51:30;;;;;;;70.05;40.28;;;1.30;99.90;;;;;;5034083;28;20046;-78
2023/01/23 11:54:21;;;;;;;72.20;39.75;;;1.40;99.90;;;;;;5035723;28;20048;-80
2023/01/23 11:57:15;;;;;;;66.35;36.03;;;1.50;99.90;;;;;;5034715;28;20056;-79
2023/01/23 11:59:51;;;;;;;66.38;36.50;;;1.60;99.90;;;;;;5034058;28;20045;-80
2023/01/23 12:02:39;;;;;;;66.63;36.53;;;1.60;99.90;;;;;;5035358;28;20057;-79
2023/01/23 12:05:23;;;;;;;65.03;35.53;;;1.60;99.90;;;;;;5034686;28;20041;-79
2023/01/23 12:08:18;;;;;;;68.18;35.65;;;1.60;99.90;;;;;;5035684;28;20037;-80
2023/01/23 12:10:49;;;;;;;64.53;35.00;;;1.60;99.90;;;;;;5035463;28;20050;-78
2023/01/23 12:13:34;;;;;;;70.22;36.10;;;1.10;99.90;;;;;;5035065;28;20046;-80
2023/01/23 12:16:22;;;;;;;69.72;35.75;;;3.80;99.90;;;;;;5034703;28;20046;-79
2023/01/23 12:19:20;;;;;;;65.50;35.13;;;1.80;99.90;;;;;;5033123;28;20050;-78
2023/01/23 12:21:50;;;;;;;64.00;34.72;;;1.80;99.90;;;;;;5035388;28;20372;-77
2023/01/23 12:24:36;;;;;;;67.15;35.00;;;1.90;99.90;;;;;;5033404;28;20048;-78
2023/01/23 12:27:15;;;;;;;63.83;33.67;;;2.00;99.90;;;;;;5034381;28;20041;-80
2023/01/23 12:30:14;;;;;;;57.22;32.53;;;2.10;99.90;;;;;;5034287;28;20045;-78
2023/01/23 12:33:05;;;;;;;53.78;30.75;;;2.20;99.90;;;;;;5032895;28;20049;-80
2023/01/23 12:35:54;;;;;;;59.10;31.33;;;2.30;99.90;;;;;;5034147;28;20046;-76
2023/01/23 12:38:24;;;;;;;51.42;28.50;;;2.30;99.90;;;;;;5033995;28;20049;-78
2023/01/23 12:40:58;;;;;;;46.33;25.70;;;2.40;99.90;;;;;;5034105;28;20045;-77
2023/01/23 12:44:03;;;;;;;47.42;23.98;;;2.50;99.90;;;;;;5034221;28;20056;-77
2023/01/23 12:46:39;;;;;;;47.05;23.83;;;2.50;99.90;;;;;;5033805;28;20045;-76
2023/01/23 12:49:22;;;;;;;39.65;21.83;;;2.50;99.90;;;;;;5033888;28;20045;-76
2023/01/23 12:51:56;;;;;;;41.10;22.42;;;2.50;99.90;;;;;;5016649;28;20406;-80
2023/01/23 12:54:37;;;;;;;43.70;23.63;;;3.10;99.90;;;;;;5034562;28;20049;-77
2023/01/23 12:57:07;;;;;;;44.70;25.63;;;4.20;99.90;;;;;;5017356;28;20064;-81
2023/01/23 12:59:46;;;;;;;41.85;23.95;;;3.40;99.90;;;;;;5033450;28;20045;-77
2023/01/23 13:02:32;;;;;;;43.17;21.95;;;2.70;99.90;;;;;;5033602;28;20480;-81
2023/01/23 13:05:14;;;;;;;44.50;22.25;;;2.70;99.90;;;;;;5032840;28;20049;-76
2023/01/23 13:07:57;;;;;;;36.38;21.23;;;2.60;99.90;;;;;;5034109;28;20522;-76
2023/01/23 13:13:28;;;;;;;48.47;25.80;;;2.80;99.90;;;;;;5035787;28;20046;-78
2023/01/23 13:16:14;;;;;;;50.38;27.27;;;2.80;99.90;;;;;;5038461;28;20045;-81
2023/01/23 13:22:04;;;;;;;57.55;30.85;;;2.80;99.90;;;;;;5038602;28;20045;-78
2023/01/23 13:27:58;;;;;;;55.20;30.25;;;2.80;99.90;;;;;;5038246;28;20045;-78
2023/01/23 13:30:25;;;;;;;59.30;30.90;;;2.70;99.90;;;;;;5038140;28;20467;-76